Impacts TAF Board INFO
FOR SITUATIONAL AWARENESS. NOT TO BE USED FOR FLIGHT PLANNING PURPOSES.
IDs:

KCVG - Cincinnati Intl, KY, US

Issued at 1737 UTC 24 Jun 2018
Updated at 1821 UTC 24 Jun 2018
Potential Impact None Slight Moderate High
Time1752Z 24/19Z 24/20Z 24/21Z 24/22Z 24/23Z 25/00Z 25/01Z 25/02Z 25/03Z 25/04Z 25/05Z 25/06Z 25/07Z>>
Type OBS PRVL PRVL PRVL PRVL PRVL PRVL PRVL PRVL PRVL PRVL PRVL PRVL PRVL
VIS 10 >6 >6 >6 >6 >6 >6 >6 >6 >6 >6 >6 >6 >6
CIG -- -- -- -- -- -- -- -- -- -- -- 120 120 120
Cover SCT SCT SCT SCT SCT SCT SCT SCT SCT SCT SCT BKN BKN BKN
FltCat VFR VFR VFR VFR VFR VFR VFR VFR VFR VFR VFR VFR VFR VFR
WX -- -- -- -- -- -- -- -- -- -- -- -- -- --
WDir 280 290 290 290 290 290 290 VRB VRB VRB VRB 50 50 50
WSpd 9 9 9 9 9 9 9 3 3 3 3 5 5 5
WGst -- -- -- -- -- -- -- -- -- -- -- -- -- --

Raw TAF
KCVG 241737Z 2418/2524 29009KT P6SM SCT050
  FM250100 VRB03KT P6SM SCT250
  FM250500 05005KT P6SM BKN120
  FM251200 08008KT P6SM VCSH BKN050
  FM251800 07009KT P6SM SCT050 BKN250


Raw METAR
KCVG 241752Z 28009KT 10SM SCT040 SCT055 28/17 A2998 RMK AO2 SLP141 T02780172 10278 20206 51007 $
KCVG 241652Z 29012G18KT 10SM SCT038 27/17 A2996 RMK AO2 SLP135 T02670172 $
KCVG 241552Z 28009KT 10SM SCT033 27/17 A2997 RMK AO2 SLP140 T02670172 $

METAR Board
Radar Display
Forecast Discussion

FOR SITUATIONAL AWARENESS. NOT TO BE USED FOR FLIGHT PLANNING PURPOSES.